Terminal Aerodrome Forecast
Issued by NWS Quad Cities IA IL

Home | Current Version | Previous Version | Text Only | Print | Product List | Glossary Off
Versions: 1 2 3 4 5 6 7 8 9 10 11 12 13 14 15 16 17 18 19

260
FTUS43 KDVN 201058 AAD
TAFDBQ
TAF AMD
KDBQ 201058Z 2011/2106 22014KT P6SM OVC017
     FM201300 28018G24KT P6SM OVC012
     FM202000 29017G24KT P6SM OVC020
     FM210100 30014KT P6SM OVC035=

USA.gov is the U.S. government's official web portal to all federal, state and local government web resources and services.